sensor_id;sensor_type;location;lat;lon;timestamp;P1;durP1;ratioP1;P2;durP2;ratioP2
5785;SDS011;2919;48.630;9.000;2022-11-20T00:00:54;8.63;;;2.50;;
5785;SDS011;2919;48.630;9.000;2022-11-20T00:03:20;4.83;;;1.63;;
5785;SDS011;2919;48.630;9.000;2022-11-20T00:05:46;3.90;;;1.80;;
5785;SDS011;2919;48.630;9.000;2022-11-20T00:08:12;4.90;;;1.30;;
5785;SDS011;2919;48.630;9.000;2022-11-20T00:10:38;1.90;;;1.30;;
5785;SDS011;2919;48.630;9.000;2022-11-20T00:13:05;4.90;;;2.23;;
5785;SDS011;2919;48.630;9.000;2022-11-20T00:15:31;6.20;;;2.40;;
5785;SDS011;2919;48.630;9.000;2022-11-20T00:17:57;3.07;;;1.80;;
5785;SDS011;2919;48.630;9.000;2022-11-20T00:20:22;2.70;;;1.77;;
5785;SDS011;2919;48.630;9.000;2022-11-20T00:22:49;3.23;;;1.47;;
5785;SDS011;2919;48.630;9.000;2022-11-20T00:25:14;3.30;;;1.60;;
5785;SDS011;2919;48.630;9.000;2022-11-20T00:27:40;3.63;;;1.67;;
5785;SDS011;2919;48.630;9.000;2022-11-20T00:30:06;2.03;;;1.10;;
5785;SDS011;2919;48.630;9.000;2022-11-20T00:32:32;3.13;;;1.70;;
5785;SDS011;2919;48.630;9.000;2022-11-20T00:34:58;2.67;;;1.27;;
5785;SDS011;2919;48.630;9.000;2022-11-20T00:37:23;3.07;;;1.60;;
5785;SDS011;2919;48.630;9.000;2022-11-20T00:39:49;3.00;;;1.43;;
5785;SDS011;2919;48.630;9.000;2022-11-20T00:42:14;2.73;;;1.43;;
5785;SDS011;2919;48.630;9.000;2022-11-20T00:44:40;2.90;;;1.63;;
5785;SDS011;2919;48.630;9.000;2022-11-20T00:47:05;2.50;;;1.40;;
5785;SDS011;2919;48.630;9.000;2022-11-20T00:49:31;3.00;;;1.77;;
5785;SDS011;2919;48.630;9.000;2022-11-20T00:51:57;4.80;;;1.87;;
5785;SDS011;2919;48.630;9.000;2022-11-20T00:54:22;2.63;;;1.63;;
5785;SDS011;2919;48.630;9.000;2022-11-20T00:56:48;1.93;;;1.03;;
5785;SDS011;2919;48.630;9.000;2022-11-20T00:59:13;2.47;;;1.27;;
5785;SDS011;2919;48.630;9.000;2022-11-20T01:01:39;9.13;;;1.20;;
5785;SDS011;2919;48.630;9.000;2022-11-20T01:04:04;2.77;;;1.20;;
5785;SDS011;2919;48.630;9.000;2022-11-20T01:06:31;3.10;;;0.97;;
5785;SDS011;2919;48.630;9.000;2022-11-20T01:09:00;2.60;;;1.77;;
5785;SDS011;2919;48.630;9.000;2022-11-20T01:11:28;5.60;;;1.70;;
5785;SDS011;2919;48.630;9.000;2022-11-20T01:13:56;2.33;;;1.37;;
5785;SDS011;2919;48.630;9.000;2022-11-20T01:18:51;3.60;;;1.50;;
5785;SDS011;2919;48.630;9.000;2022-11-20T01:21:22;2.63;;;1.57;;
5785;SDS011;2919;48.630;9.000;2022-11-20T01:23:51;5.77;;;2.03;;
5785;SDS011;2919;48.630;9.000;2022-11-20T01:26:18;3.23;;;1.67;;
5785;SDS011;2919;48.630;9.000;2022-11-20T01:28:48;3.10;;;2.00;;
5785;SDS011;2919;48.630;9.000;2022-11-20T01:33:45;2.00;;;1.27;;
5785;SDS011;2919;48.630;9.000;2022-11-20T01:36:12;1.83;;;1.30;;
5785;SDS011;2919;48.630;9.000;2022-11-20T01:38:39;2.47;;;1.33;;
5785;SDS011;2919;48.630;9.000;2022-11-20T01:41:05;3.97;;;2.23;;
5785;SDS011;2919;48.630;9.000;2022-11-20T01:43:32;3.77;;;1.73;;
5785;SDS011;2919;48.630;9.000;2022-11-20T01:46:14;4.27;;;2.30;;
5785;SDS011;2919;48.630;9.000;2022-11-20T01:54:01;2.50;;;1.53;;
5785;SDS011;2919;48.630;9.000;2022-11-20T01:56:31;7.13;;;2.50;;
5785;SDS011;2919;48.630;9.000;2022-11-20T01:59:01;3.30;;;1.90;;
5785;SDS011;2919;48.630;9.000;2022-11-20T02:01:28;6.50;;;2.50;;
5785;SDS011;2919;48.630;9.000;2022-11-20T02:03:54;4.70;;;2.13;;
5785;SDS011;2919;48.630;9.000;2022-11-20T02:06:25;4.47;;;2.33;;
5785;SDS011;2919;48.630;9.000;2022-11-20T02:08:54;5.57;;;2.60;;
5785;SDS011;2919;48.630;9.000;2022-11-20T02:11:20;3.60;;;2.30;;
5785;SDS011;2919;48.630;9.000;2022-11-20T02:13:46;3.10;;;2.30;;
5785;SDS011;2919;48.630;9.000;2022-11-20T02:18:53;4.97;;;2.87;;
5785;SDS011;2919;48.630;9.000;2022-11-20T02:29:12;4.97;;;2.90;;
5785;SDS011;2919;48.630;9.000;2022-11-20T02:31:41;5.67;;;2.43;;
5785;SDS011;2919;48.630;9.000;2022-11-20T02:34:08;5.17;;;2.50;;
5785;SDS011;2919;48.630;9.000;2022-11-20T02:36:34;5.80;;;3.40;;
5785;SDS011;2919;48.630;9.000;2022-11-20T02:39:02;7.70;;;3.27;;
5785;SDS011;2919;48.630;9.000;2022-11-20T02:41:35;6.33;;;2.83;;
5785;SDS011;2919;48.630;9.000;2022-11-20T02:44:02;3.90;;;2.43;;
5785;SDS011;2919;48.630;9.000;2022-11-20T02:46:28;5.87;;;2.37;;
5785;SDS011;2919;48.630;9.000;2022-11-20T02:48:55;5.70;;;2.60;;
5785;SDS011;2919;48.630;9.000;2022-11-20T02:51:20;4.80;;;2.63;;
5785;SDS011;2919;48.630;9.000;2022-11-20T02:53:46;3.80;;;2.70;;
5785;SDS011;2919;48.630;9.000;2022-11-20T02:56:12;6.93;;;3.03;;
5785;SDS011;2919;48.630;9.000;2022-11-20T02:58:38;2.97;;;1.77;;
5785;SDS011;2919;48.630;9.000;2022-11-20T03:01:04;9.57;;;2.60;;
5785;SDS011;2919;48.630;9.000;2022-11-20T03:03:29;5.67;;;2.50;;
5785;SDS011;2919;48.630;9.000;2022-11-20T03:05:55;3.60;;;1.83;;
5785;SDS011;2919;48.630;9.000;2022-11-20T03:08:23;4.63;;;2.60;;
5785;SDS011;2919;48.630;9.000;2022-11-20T03:10:48;4.27;;;2.70;;
5785;SDS011;2919;48.630;9.000;2022-11-20T03:13:14;4.67;;;2.60;;
5785;SDS011;2919;48.630;9.000;2022-11-20T03:15:40;4.27;;;2.10;;
5785;SDS011;2919;48.630;9.000;2022-11-20T03:18:05;3.57;;;2.60;;
5785;SDS011;2919;48.630;9.000;2022-11-20T03:20:32;7.10;;;2.73;;
5785;SDS011;2919;48.630;9.000;2022-11-20T03:22:58;4.30;;;2.40;;
5785;SDS011;2919;48.630;9.000;2022-11-20T03:25:24;13.53;;;2.87;;
5785;SDS011;2919;48.630;9.000;2022-11-20T03:27:50;4.43;;;2.40;;
5785;SDS011;2919;48.630;9.000;2022-11-20T03:30:15;4.70;;;2.80;;
5785;SDS011;2919;48.630;9.000;2022-11-20T03:32:41;4.37;;;2.33;;
5785;SDS011;2919;48.630;9.000;2022-11-20T03:35:07;3.40;;;2.30;;
5785;SDS011;2919;48.630;9.000;2022-11-20T03:37:33;8.83;;;2.70;;
5785;SDS011;2919;48.630;9.000;2022-11-20T03:39:58;3.10;;;2.07;;
5785;SDS011;2919;48.630;9.000;2022-11-20T03:42:24;6.57;;;2.40;;
5785;SDS011;2919;48.630;9.000;2022-11-20T03:45:08;3.40;;;2.20;;
5785;SDS011;2919;48.630;9.000;2022-11-20T03:47:34;3.70;;;1.90;;
5785;SDS011;2919;48.630;9.000;2022-11-20T03:49:59;4.07;;;2.30;;
5785;SDS011;2919;48.630;9.000;2022-11-20T03:52:25;6.83;;;2.63;;
5785;SDS011;2919;48.630;9.000;2022-11-20T03:54:50;3.43;;;2.10;;
5785;SDS011;2919;48.630;9.000;2022-11-20T03:57:16;3.80;;;2.20;;
5785;SDS011;2919;48.630;9.000;2022-11-20T03:59:41;2.17;;;1.77;;
5785;SDS011;2919;48.630;9.000;2022-11-20T04:02:07;6.13;;;2.60;;
5785;SDS011;2919;48.630;9.000;2022-11-20T04:04:33;3.87;;;1.80;;
5785;SDS011;2919;48.630;9.000;2022-11-20T04:06:58;7.00;;;2.37;;
5785;SDS011;2919;48.630;9.000;2022-11-20T04:09:24;3.53;;;2.30;;
5785;SDS011;2919;48.630;9.000;2022-11-20T04:11:49;6.40;;;2.90;;
5785;SDS011;2919;48.630;9.000;2022-11-20T04:14:15;4.37;;;2.80;;
5785;SDS011;2919;48.630;9.000;2022-11-20T04:16:41;4.63;;;2.67;;
5785;SDS011;2919;48.630;9.000;2022-11-20T04:19:11;5.00;;;2.63;;
5785;SDS011;2919;48.630;9.000;2022-11-20T04:21:38;3.90;;;2.23;;
5785;SDS011;2919;48.630;9.000;2022-11-20T04:24:04;4.13;;;2.70;;
5785;SDS011;2919;48.630;9.000;2022-11-20T04:26:30;3.93;;;2.27;;
5785;SDS011;2919;48.630;9.000;2022-11-20T04:28:56;7.47;;;3.17;;
5785;SDS011;2919;48.630;9.000;2022-11-20T04:31:26;3.17;;;2.17;;
5785;SDS011;2919;48.630;9.000;2022-11-20T04:33:53;3.97;;;2.03;;
5785;SDS011;2919;48.630;9.000;2022-11-20T04:36:23;5.97;;;2.17;;
5785;SDS011;2919;48.630;9.000;2022-11-20T04:39:01;7.57;;;3.10;;
5785;SDS011;2919;48.630;9.000;2022-11-20T04:41:29;7.73;;;2.07;;
5785;SDS011;2919;48.630;9.000;2022-11-20T04:43:58;7.37;;;2.30;;
5785;SDS011;2919;48.630;9.000;2022-11-20T04:46:27;3.90;;;2.30;;
5785;SDS011;2919;48.630;9.000;2022-11-20T04:48:53;4.17;;;2.03;;
5785;SDS011;2919;48.630;9.000;2022-11-20T04:51:19;3.80;;;2.27;;
5785;SDS011;2919;48.630;9.000;2022-11-20T04:53:45;4.43;;;2.27;;
5785;SDS011;2919;48.630;9.000;2022-11-20T04:56:11;5.60;;;2.20;;
5785;SDS011;2919;48.630;9.000;2022-11-20T04:58:38;3.80;;;2.47;;
5785;SDS011;2919;48.630;9.000;2022-11-20T05:01:11;2.33;;;1.70;;
5785;SDS011;2919;48.630;9.000;2022-11-20T05:03:39;4.70;;;2.67;;
5785;SDS011;2919;48.630;9.000;2022-11-20T05:06:05;9.10;;;2.23;;
5785;SDS011;2919;48.630;9.000;2022-11-20T05:08:32;8.23;;;2.83;;
5785;SDS011;2919;48.630;9.000;2022-11-20T05:11:02;3.33;;;1.67;;
5785;SDS011;2919;48.630;9.000;2022-11-20T05:13:29;3.60;;;2.23;;
5785;SDS011;2919;48.630;9.000;2022-11-20T05:15:55;3.77;;;1.60;;
5785;SDS011;2919;48.630;9.000;2022-11-20T05:18:25;3.60;;;1.80;;
5785;SDS011;2919;48.630;9.000;2022-11-20T05:20:54;3.80;;;1.73;;
5785;SDS011;2919;48.630;9.000;2022-11-20T05:23:21;3.60;;;1.90;;
5785;SDS011;2919;48.630;9.000;2022-11-20T05:25:46;4.17;;;1.73;;
5785;SDS011;2919;48.630;9.000;2022-11-20T05:28:12;1.90;;;1.30;;
5785;SDS011;2919;48.630;9.000;2022-11-20T05:30:37;2.90;;;1.20;;
5785;SDS011;2919;48.630;9.000;2022-11-20T05:33:03;2.60;;;1.20;;
5785;SDS011;2919;48.630;9.000;2022-11-20T05:35:29;3.20;;;1.33;;
5785;SDS011;2919;48.630;9.000;2022-11-20T05:37:54;2.53;;;1.50;;
5785;SDS011;2919;48.630;9.000;2022-11-20T05:40:20;5.20;;;2.63;;
5785;SDS011;2919;48.630;9.000;2022-11-20T05:42:45;4.93;;;2.50;;
5785;SDS011;2919;48.630;9.000;2022-11-20T05:45:11;6.20;;;2.60;;
5785;SDS011;2919;48.630;9.000;2022-11-20T05:47:36;2.40;;;1.90;;
5785;SDS011;2919;48.630;9.000;2022-11-20T05:50:02;3.80;;;2.57;;
5785;SDS011;2919;48.630;9.000;2022-11-20T05:52:28;4.23;;;2.00;;
5785;SDS011;2919;48.630;9.000;2022-11-20T05:54:54;3.27;;;1.37;;
5785;SDS011;2919;48.630;9.000;2022-11-20T05:57:20;3.10;;;1.37;;
5785;SDS011;2919;48.630;9.000;2022-11-20T05:59:45;4.43;;;2.63;;
5785;SDS011;2919;48.630;9.000;2022-11-20T06:02:11;4.00;;;2.20;;
5785;SDS011;2919;48.630;9.000;2022-11-20T06:04:37;4.20;;;1.53;;
5785;SDS011;2919;48.630;9.000;2022-11-20T06:07:04;2.70;;;1.40;;
5785;SDS011;2919;48.630;9.000;2022-11-20T06:09:30;2.57;;;1.30;;
5785;SDS011;2919;48.630;9.000;2022-11-20T06:11:56;2.73;;;1.30;;
5785;SDS011;2919;48.630;9.000;2022-11-20T06:14:21;2.40;;;1.43;;
5785;SDS011;2919;48.630;9.000;2022-11-20T06:16:47;2.53;;;1.70;;
5785;SDS011;2919;48.630;9.000;2022-11-20T06:19:12;2.53;;;1.77;;
5785;SDS011;2919;48.630;9.000;2022-11-20T06:21:38;5.03;;;2.00;;
5785;SDS011;2919;48.630;9.000;2022-11-20T06:24:04;6.40;;;1.57;;
5785;SDS011;2919;48.630;9.000;2022-11-20T06:26:30;6.20;;;2.37;;
5785;SDS011;2919;48.630;9.000;2022-11-20T06:28:55;3.50;;;1.73;;
5785;SDS011;2919;48.630;9.000;2022-11-20T06:31:22;2.33;;;1.30;;
5785;SDS011;2919;48.630;9.000;2022-11-20T06:33:49;3.80;;;2.00;;
5785;SDS011;2919;48.630;9.000;2022-11-20T06:36:15;2.63;;;1.40;;
5785;SDS011;2919;48.630;9.000;2022-11-20T06:38:42;4.90;;;1.67;;
5785;SDS011;2919;48.630;9.000;2022-11-20T06:41:12;5.50;;;2.03;;
5785;SDS011;2919;48.630;9.000;2022-11-20T06:43:40;3.30;;;1.63;;
5785;SDS011;2919;48.630;9.000;2022-11-20T06:46:06;3.77;;;1.60;;
5785;SDS011;2919;48.630;9.000;2022-11-20T06:48:32;2.57;;;1.67;;
5785;SDS011;2919;48.630;9.000;2022-11-20T06:50:58;2.20;;;1.67;;
5785;SDS011;2919;48.630;9.000;2022-11-20T06:53:24;2.50;;;1.53;;
5785;SDS011;2919;48.630;9.000;2022-11-20T06:55:50;5.07;;;2.10;;
5785;SDS011;2919;48.630;9.000;2022-11-20T06:58:16;2.60;;;1.10;;
5785;SDS011;2919;48.630;9.000;2022-11-20T07:00:42;3.90;;;1.57;;
5785;SDS011;2919;48.630;9.000;2022-11-20T07:03:09;2.33;;;1.13;;
5785;SDS011;2919;48.630;9.000;2022-11-20T07:05:37;3.90;;;1.60;;
5785;SDS011;2919;48.630;9.000;2022-11-20T07:08:03;2.23;;;1.40;;
5785;SDS011;2919;48.630;9.000;2022-11-20T07:10:30;5.37;;;2.53;;
5785;SDS011;2919;48.630;9.000;2022-11-20T07:12:55;1.90;;;1.00;;
5785;SDS011;2919;48.630;9.000;2022-11-20T07:15:22;2.90;;;1.80;;
5785;SDS011;2919;48.630;9.000;2022-11-20T07:17:49;2.40;;;1.67;;
5785;SDS011;2919;48.630;9.000;2022-11-20T07:20:14;2.10;;;1.30;;
5785;SDS011;2919;48.630;9.000;2022-11-20T07:22:40;3.00;;;1.80;;
5785;SDS011;2919;48.630;9.000;2022-11-20T07:25:06;3.40;;;1.80;;
5785;SDS011;2919;48.630;9.000;2022-11-20T07:27:33;3.33;;;1.33;;
5785;SDS011;2919;48.630;9.000;2022-11-20T07:29:59;2.43;;;1.47;;
5785;SDS011;2919;48.630;9.000;2022-11-20T07:32:25;5.33;;;1.50;;
5785;SDS011;2919;48.630;9.000;2022-11-20T07:34:51;4.70;;;1.60;;
5785;SDS011;2919;48.630;9.000;2022-11-20T07:37:16;5.60;;;1.83;;
5785;SDS011;2919;48.630;9.000;2022-11-20T07:39:42;6.73;;;2.30;;
5785;SDS011;2919;48.630;9.000;2022-11-20T07:42:08;4.17;;;2.07;;
5785;SDS011;2919;48.630;9.000;2022-11-20T07:44:34;6.23;;;2.70;;
5785;SDS011;2919;48.630;9.000;2022-11-20T07:47:00;4.43;;;2.03;;
5785;SDS011;2919;48.630;9.000;2022-11-20T07:49:26;2.27;;;1.40;;
5785;SDS011;2919;48.630;9.000;2022-11-20T07:51:51;2.60;;;1.53;;
5785;SDS011;2919;48.630;9.000;2022-11-20T07:54:20;5.57;;;1.80;;
5785;SDS011;2919;48.630;9.000;2022-11-20T07:56:46;3.00;;;1.63;;
5785;SDS011;2919;48.630;9.000;2022-11-20T07:59:12;3.93;;;1.60;;
5785;SDS011;2919;48.630;9.000;2022-11-20T08:01:38;5.73;;;2.50;;
5785;SDS011;2919;48.630;9.000;2022-11-20T08:04:05;3.87;;;2.00;;
5785;SDS011;2919;48.630;9.000;2022-11-20T08:06:31;4.73;;;1.53;;
5785;SDS011;2919;48.630;9.000;2022-11-20T08:08:56;7.93;;;2.00;;
5785;SDS011;2919;48.630;9.000;2022-11-20T08:11:22;4.00;;;2.30;;
5785;SDS011;2919;48.630;9.000;2022-11-20T08:14:06;3.07;;;1.40;;
5785;SDS011;2919;48.630;9.000;2022-11-20T08:16:41;3.63;;;1.63;;
5785;SDS011;2919;48.630;9.000;2022-11-20T08:19:12;3.00;;;1.47;;
5785;SDS011;2919;48.630;9.000;2022-11-20T08:21:39;1.80;;;1.27;;
5785;SDS011;2919;48.630;9.000;2022-11-20T08:24:05;2.13;;;1.23;;
5785;SDS011;2919;48.630;9.000;2022-11-20T08:26:31;3.10;;;1.67;;
5785;SDS011;2919;48.630;9.000;2022-11-20T08:28:57;21.30;;;1.67;;
5785;SDS011;2919;48.630;9.000;2022-11-20T08:31:24;3.40;;;1.43;;
5785;SDS011;2919;48.630;9.000;2022-11-20T08:33:51;3.43;;;1.60;;
5785;SDS011;2919;48.630;9.000;2022-11-20T08:36:17;1.93;;;1.07;;
5785;SDS011;2919;48.630;9.000;2022-11-20T08:38:51;1.63;;;0.83;;
5785;SDS011;2919;48.630;9.000;2022-11-20T08:41:18;1.93;;;1.10;;
5785;SDS011;2919;48.630;9.000;2022-11-20T08:46:20;2.33;;;0.90;;
5785;SDS011;2919;48.630;9.000;2022-11-20T08:48:46;4.23;;;1.10;;
5785;SDS011;2919;48.630;9.000;2022-11-20T08:51:12;2.70;;;1.03;;
5785;SDS011;2919;48.630;9.000;2022-11-20T08:53:38;2.00;;;0.97;;
5785;SDS011;2919;48.630;9.000;2022-11-20T08:56:04;1.70;;;1.10;;
5785;SDS011;2919;48.630;9.000;2022-11-20T08:58:30;1.60;;;0.83;;
5785;SDS011;2919;48.630;9.000;2022-11-20T09:00:56;2.13;;;0.97;;
5785;SDS011;2919;48.630;9.000;2022-11-20T09:03:22;4.60;;;1.30;;
5785;SDS011;2919;48.630;9.000;2022-11-20T09:05:48;1.40;;;0.70;;
5785;SDS011;2919;48.630;9.000;2022-11-20T09:08:13;1.40;;;0.80;;
5785;SDS011;2919;48.630;9.000;2022-11-20T09:10:39;3.00;;;1.40;;
5785;SDS011;2919;48.630;9.000;2022-11-20T09:13:05;2.00;;;0.77;;
5785;SDS011;2919;48.630;9.000;2022-11-20T09:15:30;1.70;;;1.00;;
5785;SDS011;2919;48.630;9.000;2022-11-20T09:18:00;1.90;;;0.87;;
5785;SDS011;2919;48.630;9.000;2022-11-20T09:20:28;2.03;;;1.17;;
5785;SDS011;2919;48.630;9.000;2022-11-20T09:22:54;3.00;;;1.23;;
5785;SDS011;2919;48.630;9.000;2022-11-20T09:25:20;1.50;;;0.70;;
5785;SDS011;2919;48.630;9.000;2022-11-20T09:27:46;3.93;;;1.33;;
5785;SDS011;2919;48.630;9.000;2022-11-20T09:30:13;3.30;;;1.37;;
5785;SDS011;2919;48.630;9.000;2022-11-20T09:32:39;2.33;;;1.20;;
5785;SDS011;2919;48.630;9.000;2022-11-20T09:35:05;1.67;;;0.70;;
5785;SDS011;2919;48.630;9.000;2022-11-20T09:37:31;1.87;;;0.93;;
5785;SDS011;2919;48.630;9.000;2022-11-20T09:39:57;5.43;;;1.97;;
5785;SDS011;2919;48.630;9.000;2022-11-20T09:42:41;5.93;;;1.90;;
5785;SDS011;2919;48.630;9.000;2022-11-20T09:45:15;4.73;;;1.30;;
5785;SDS011;2919;48.630;9.000;2022-11-20T09:47:51;1.90;;;0.97;;
5785;SDS011;2919;48.630;9.000;2022-11-20T09:53:30;1.47;;;0.70;;
5785;SDS011;2919;48.630;9.000;2022-11-20T09:56:16;1.67;;;0.73;;
5785;SDS011;2919;48.630;9.000;2022-11-20T09:58:50;1.20;;;0.70;;
5785;SDS011;2919;48.630;9.000;2022-11-20T10:01:20;1.30;;;0.60;;
5785;SDS011;2919;48.630;9.000;2022-11-20T10:06:31;1.90;;;0.90;;
5785;SDS011;2919;48.630;9.000;2022-11-20T10:17:27;2.00;;;0.90;;
5785;SDS011;2919;48.630;9.000;2022-11-20T10:22:59;1.20;;;0.67;;
5785;SDS011;2919;48.630;9.000;2022-11-20T10:26:06;2.23;;;0.90;;
5785;SDS011;2919;48.630;9.000;2022-11-20T10:29:12;1.50;;;0.70;;
5785;SDS011;2919;48.630;9.000;2022-11-20T10:31:41;1.67;;;0.90;;
5785;SDS011;2919;48.630;9.000;2022-11-20T10:43:07;1.50;;;0.70;;
5785;SDS011;2919;48.630;9.000;2022-11-20T10:48:23;1.60;;;0.83;;
5785;SDS011;2919;48.630;9.000;2022-11-20T10:53:43;1.30;;;0.70;;
5785;SDS011;2919;48.630;9.000;2022-11-20T11:01:55;1.87;;;0.70;;
5785;SDS011;2919;48.630;9.000;2022-11-20T11:07:20;2.40;;;1.13;;
5785;SDS011;2919;48.630;9.000;2022-11-20T11:09:53;7.63;;;1.77;;
5785;SDS011;2919;48.630;9.000;2022-11-20T11:12:20;2.13;;;0.93;;
5785;SDS011;2919;48.630;9.000;2022-11-20T11:14:49;2.53;;;1.10;;
5785;SDS011;2919;48.630;9.000;2022-11-20T11:17:18;1.67;;;0.70;;
5785;SDS011;2919;48.630;9.000;2022-11-20T11:22:29;3.77;;;1.27;;
5785;SDS011;2919;48.630;9.000;2022-11-20T11:24:57;1.93;;;0.80;;
5785;SDS011;2919;48.630;9.000;2022-11-20T11:27:23;1.77;;;0.80;;
5785;SDS011;2919;48.630;9.000;2022-11-20T11:29:48;2.33;;;1.10;;
5785;SDS011;2919;48.630;9.000;2022-11-20T11:32:15;2.10;;;1.43;;
5785;SDS011;2919;48.630;9.000;2022-11-20T11:34:44;1.70;;;0.73;;
5785;SDS011;2919;48.630;9.000;2022-11-20T11:37:11;2.17;;;0.70;;
5785;SDS011;2919;48.630;9.000;2022-11-20T11:39:42;1.50;;;0.70;;
5785;SDS011;2919;48.630;9.000;2022-11-20T11:42:12;1.97;;;1.07;;
5785;SDS011;2919;48.630;9.000;2022-11-20T11:44:43;4.10;;;1.30;;
5785;SDS011;2919;48.630;9.000;2022-11-20T11:47:30;1.53;;;0.70;;
5785;SDS011;2919;48.630;9.000;2022-11-20T11:53:20;1.70;;;0.90;;
5785;SDS011;2919;48.630;9.000;2022-11-20T11:58:28;1.23;;;0.70;;
5785;SDS011;2919;48.630;9.000;2022-11-20T12:06:45;1.90;;;0.73;;
5785;SDS011;2919;48.630;9.000;2022-11-20T12:09:15;1.87;;;0.90;;
5785;SDS011;2919;48.630;9.000;2022-11-20T12:11:45;1.40;;;0.70;;
5785;SDS011;2919;48.630;9.000;2022-11-20T12:16:52;5.40;;;1.10;;
5785;SDS011;2919;48.630;9.000;2022-11-20T12:19:20;6.30;;;0.80;;
5785;SDS011;2919;48.630;9.000;2022-11-20T12:24:24;3.57;;;1.03;;
5785;SDS011;2919;48.630;9.000;2022-11-20T12:27:03;1.90;;;0.83;;
5785;SDS011;2919;48.630;9.000;2022-11-20T12:29:53;1.57;;;0.77;;
5785;SDS011;2919;48.630;9.000;2022-11-20T12:32:45;2.90;;;0.80;;
5785;SDS011;2919;48.630;9.000;2022-11-20T12:35:44;3.10;;;0.90;;
5785;SDS011;2919;48.630;9.000;2022-11-20T12:55:49;2.27;;;0.70;;
5785;SDS011;2919;48.630;9.000;2022-11-20T13:04:33;4.23;;;1.20;;
5785;SDS011;2919;48.630;9.000;2022-11-20T13:06:55;2.00;;;0.80;;
5785;SDS011;2919;48.630;9.000;2022-11-20T13:09:22;3.00;;;0.90;;
5785;SDS011;2919;48.630;9.000;2022-11-20T13:12:31;1.60;;;0.60;;
5785;SDS011;2919;48.630;9.000;2022-11-20T13:17:52;1.73;;;0.70;;
5785;SDS011;2919;48.630;9.000;2022-11-20T13:20:21;1.70;;;0.80;;
5785;SDS011;2919;48.630;9.000;2022-11-20T13:22:51;2.67;;;0.80;;
5785;SDS011;2919;48.630;9.000;2022-11-20T13:25:35;1.60;;;0.80;;
5785;SDS011;2919;48.630;9.000;2022-11-20T13:28:04;1.57;;;0.70;;
5785;SDS011;2919;48.630;9.000;2022-11-20T13:30:50;3.47;;;0.97;;
5785;SDS011;2919;48.630;9.000;2022-11-20T13:33:34;1.30;;;0.70;;
5785;SDS011;2919;48.630;9.000;2022-11-20T13:36:06;1.20;;;0.50;;
5785;SDS011;2919;48.630;9.000;2022-11-20T13:38:49;1.60;;;0.60;;
5785;SDS011;2919;48.630;9.000;2022-11-20T13:44:35;2.10;;;0.60;;
5785;SDS011;2919;48.630;9.000;2022-11-20T13:47:04;4.07;;;0.67;;
5785;SDS011;2919;48.630;9.000;2022-11-20T13:49:45;1.30;;;0.60;;
5785;SDS011;2919;48.630;9.000;2022-11-20T14:00:28;1.60;;;0.60;;
5785;SDS011;2919;48.630;9.000;2022-11-20T14:05:36;2.10;;;0.90;;
5785;SDS011;2919;48.630;9.000;2022-11-20T14:08:04;4.60;;;0.80;;
5785;SDS011;2919;48.630;9.000;2022-11-20T14:10:37;1.67;;;0.77;;
5785;SDS011;2919;48.630;9.000;2022-11-20T14:13:12;3.70;;;1.20;;
5785;SDS011;2919;48.630;9.000;2022-11-20T14:15:42;1.30;;;0.70;;
5785;SDS011;2919;48.630;9.000;2022-11-20T14:18:18;1.30;;;0.70;;
5785;SDS011;2919;48.630;9.000;2022-11-20T14:20:46;2.23;;;1.00;;
5785;SDS011;2919;48.630;9.000;2022-11-20T14:23:12;3.27;;;0.80;;
5785;SDS011;2919;48.630;9.000;2022-11-20T14:25:49;2.40;;;0.80;;
5785;SDS011;2919;48.630;9.000;2022-11-20T14:28:20;1.90;;;0.83;;
5785;SDS011;2919;48.630;9.000;2022-11-20T14:30:50;3.77;;;1.20;;
5785;SDS011;2919;48.630;9.000;2022-11-20T14:33:16;1.40;;;0.70;;
5785;SDS011;2919;48.630;9.000;2022-11-20T14:35:45;4.90;;;2.10;;
5785;SDS011;2919;48.630;9.000;2022-11-20T14:38:14;12.10;;;4.57;;
5785;SDS011;2919;48.630;9.000;2022-11-20T14:40:42;4.03;;;1.40;;
5785;SDS011;2919;48.630;9.000;2022-11-20T14:45:55;2.60;;;0.90;;
5785;SDS011;2919;48.630;9.000;2022-11-20T14:48:28;1.80;;;1.00;;
5785;SDS011;2919;48.630;9.000;2022-11-20T14:50:57;4.23;;;1.00;;
5785;SDS011;2919;48.630;9.000;2022-11-20T14:53:23;2.20;;;1.07;;
5785;SDS011;2919;48.630;9.000;2022-11-20T14:55:57;2.47;;;1.10;;
5785;SDS011;2919;48.630;9.000;2022-11-20T14:58:31;1.80;;;1.27;;
5785;SDS011;2919;48.630;9.000;2022-11-20T15:01:02;4.17;;;1.73;;
5785;SDS011;2919;48.630;9.000;2022-11-20T15:03:34;2.53;;;1.57;;
5785;SDS011;2919;48.630;9.000;2022-11-20T15:06:01;2.00;;;0.70;;
5785;SDS011;2919;48.630;9.000;2022-11-20T15:08:27;2.33;;;1.03;;
5785;SDS011;2919;48.630;9.000;2022-11-20T15:10:53;3.53;;;1.17;;
5785;SDS011;2919;48.630;9.000;2022-11-20T15:15:55;4.77;;;1.90;;
5785;SDS011;2919;48.630;9.000;2022-11-20T15:18:29;3.30;;;1.43;;
5785;SDS011;2919;48.630;9.000;2022-11-20T15:20:57;6.90;;;2.03;;
5785;SDS011;2919;48.630;9.000;2022-11-20T15:23:27;4.17;;;1.67;;
5785;SDS011;2919;48.630;9.000;2022-11-20T15:25:53;2.00;;;1.10;;
5785;SDS011;2919;48.630;9.000;2022-11-20T15:30:45;2.13;;;1.23;;
5785;SDS011;2919;48.630;9.000;2022-11-20T15:33:11;2.70;;;1.10;;
5785;SDS011;2919;48.630;9.000;2022-11-20T15:35:38;1.43;;;0.80;;
5785;SDS011;2919;48.630;9.000;2022-11-20T15:38:03;1.80;;;1.20;;
5785;SDS011;2919;48.630;9.000;2022-11-20T15:40:29;2.40;;;1.03;;
5785;SDS011;2919;48.630;9.000;2022-11-20T15:42:55;9.97;;;1.37;;
5785;SDS011;2919;48.630;9.000;2022-11-20T15:45:45;6.03;;;2.13;;
5785;SDS011;2919;48.630;9.000;2022-11-20T15:48:16;2.10;;;1.17;;
5785;SDS011;2919;48.630;9.000;2022-11-20T15:50:51;5.03;;;1.47;;
5785;SDS011;2919;48.630;9.000;2022-11-20T15:53:17;3.20;;;1.50;;
5785;SDS011;2919;48.630;9.000;2022-11-20T15:55:43;2.40;;;1.20;;
5785;SDS011;2919;48.630;9.000;2022-11-20T15:58:09;2.77;;;1.27;;
5785;SDS011;2919;48.630;9.000;2022-11-20T16:00:35;1.90;;;1.13;;
5785;SDS011;2919;48.630;9.000;2022-11-20T16:03:00;3.50;;;1.10;;
5785;SDS011;2919;48.630;9.000;2022-11-20T16:05:29;2.40;;;1.33;;
5785;SDS011;2919;48.630;9.000;2022-11-20T16:07:55;7.03;;;1.43;;
5785;SDS011;2919;48.630;9.000;2022-11-20T16:10:21;1.77;;;1.13;;
5785;SDS011;2919;48.630;9.000;2022-11-20T16:12:47;6.20;;;1.33;;
5785;SDS011;2919;48.630;9.000;2022-11-20T16:15:31;2.60;;;1.20;;
5785;SDS011;2919;48.630;9.000;2022-11-20T16:18:16;2.80;;;1.70;;
5785;SDS011;2919;48.630;9.000;2022-11-20T16:20:43;2.13;;;1.30;;
5785;SDS011;2919;48.630;9.000;2022-11-20T16:23:11;3.93;;;1.97;;
5785;SDS011;2919;48.630;9.000;2022-11-20T16:25:37;3.80;;;2.00;;
5785;SDS011;2919;48.630;9.000;2022-11-20T16:28:02;3.93;;;1.70;;
5785;SDS011;2919;48.630;9.000;2022-11-20T16:30:28;3.53;;;1.80;;
5785;SDS011;2919;48.630;9.000;2022-11-20T16:32:55;4.20;;;1.90;;
5785;SDS011;2919;48.630;9.000;2022-11-20T16:35:20;2.97;;;1.57;;
5785;SDS011;2919;48.630;9.000;2022-11-20T16:37:46;3.90;;;2.03;;
5785;SDS011;2919;48.630;9.000;2022-11-20T16:40:11;7.80;;;2.80;;
5785;SDS011;2919;48.630;9.000;2022-11-20T16:42:37;5.53;;;1.40;;
5785;SDS011;2919;48.630;9.000;2022-11-20T16:45:03;3.67;;;2.23;;
5785;SDS011;2919;48.630;9.000;2022-11-20T16:47:32;6.80;;;2.10;;
5785;SDS011;2919;48.630;9.000;2022-11-20T16:49:59;4.33;;;2.20;;
5785;SDS011;2919;48.630;9.000;2022-11-20T16:52:25;1.93;;;1.17;;
5785;SDS011;2919;48.630;9.000;2022-11-20T16:54:51;6.43;;;2.00;;
5785;SDS011;2919;48.630;9.000;2022-11-20T16:57:16;2.47;;;1.23;;
5785;SDS011;2919;48.630;9.000;2022-11-20T16:59:42;2.30;;;1.07;;
5785;SDS011;2919;48.630;9.000;2022-11-20T17:02:08;2.30;;;1.20;;
5785;SDS011;2919;48.630;9.000;2022-11-20T17:04:34;2.30;;;1.37;;
5785;SDS011;2919;48.630;9.000;2022-11-20T17:07:00;3.97;;;1.30;;
5785;SDS011;2919;48.630;9.000;2022-11-20T17:09:27;2.30;;;0.90;;
5785;SDS011;2919;48.630;9.000;2022-11-20T17:11:53;2.00;;;1.20;;
5785;SDS011;2919;48.630;9.000;2022-11-20T17:14:18;2.40;;;1.40;;
5785;SDS011;2919;48.630;9.000;2022-11-20T17:16:44;2.77;;;1.23;;
5785;SDS011;2919;48.630;9.000;2022-11-20T17:19:10;4.30;;;1.43;;
5785;SDS011;2919;48.630;9.000;2022-11-20T17:21:36;2.63;;;1.80;;
5785;SDS011;2919;48.630;9.000;2022-11-20T17:24:03;2.10;;;1.03;;
5785;SDS011;2919;48.630;9.000;2022-11-20T17:26:31;1.90;;;1.27;;
5785;SDS011;2919;48.630;9.000;2022-11-20T17:28:59;1.70;;;0.93;;
5785;SDS011;2919;48.630;9.000;2022-11-20T17:31:30;3.03;;;1.13;;
5785;SDS011;2919;48.630;9.000;2022-11-20T17:33:57;3.37;;;1.00;;